createdAt,value
2023-02-14T00:00:34.996Z,11.60
2023-02-14T00:05:57.777Z,14.50
2023-02-14T00:11:00.889Z,15.90
2023-02-14T00:16:04.015Z,11.20
2023-02-14T00:21:06.897Z,13.10
2023-02-14T00:26:16.107Z,18.80
2023-02-14T00:31:19.071Z,17.40
2023-02-14T00:36:22.639Z,15.30
2023-02-14T00:41:25.517Z,17.40
2023-02-14T00:46:28.815Z,11.80
2023-02-14T00:51:32.016Z,13.20
2023-02-14T00:56:34.938Z,15.40
2023-02-14T01:01:38.232Z,13.60
2023-02-14T01:06:41.187Z,15.60
2023-02-14T01:11:44.037Z,15.00
2023-02-14T01:16:46.992Z,10.30
2023-02-14T01:21:49.841Z,15.90
2023-02-14T01:26:52.687Z,12.60
2023-02-14T01:31:55.559Z,12.30
2023-02-14T01:36:58.444Z,18.20
2023-02-14T01:42:01.287Z,12.50
2023-02-14T01:47:08.768Z,16.70
2023-02-14T01:52:24.002Z,14.90
2023-02-14T01:57:35.392Z,14.90
2023-02-14T02:02:38.273Z,14.10
2023-02-14T02:07:42.316Z,12.50
2023-02-14T02:12:45.592Z,12.60
2023-02-14T02:18:45.831Z,13.40
2023-02-14T02:24:28.825Z,12.70
2023-02-14T02:35:50.206Z,11.50
2023-02-14T02:41:13.606Z,11.60
2023-02-14T02:52:15.452Z,14.00
2023-02-14T02:57:32.121Z,13.80
2023-02-14T03:03:01.945Z,12.20
2023-02-14T03:08:05.796Z,11.40
2023-02-14T03:18:32.044Z,13.40
2023-02-14T03:24:09.607Z,16.20
2023-02-14T03:29:36.772Z,15.40
2023-02-14T03:34:55.060Z,13.30
2023-02-14T03:40:13.816Z,12.80
2023-02-14T03:45:35.875Z,13.30
2023-02-14T03:50:42.726Z,12.60
2023-02-14T03:56:04.388Z,16.30
2023-02-14T04:01:26.236Z,13.50
2023-02-14T04:06:29.165Z,13.30
2023-02-14T04:11:35.629Z,14.30
2023-02-14T04:16:56.814Z,15.80
2023-02-14T04:21:59.712Z,15.90
2023-02-14T04:27:11.555Z,18.30
2023-02-14T04:32:18.494Z,13.30
2023-02-14T04:37:21.416Z,19.60
2023-02-14T04:42:24.966Z,13.90
2023-02-14T04:47:27.817Z,20.90
2023-02-14T04:52:30.674Z,15.10
2023-02-14T04:57:33.534Z,23.80
2023-02-14T05:02:37.323Z,17.40
2023-02-14T05:12:43.226Z,15.50
2023-02-14T05:17:46.107Z,15.80
2023-02-14T05:22:48.942Z,18.80
2023-02-14T05:27:51.781Z,17.70
2023-02-14T05:32:54.932Z,18.10
2023-02-14T05:37:58.131Z,18.30
2023-02-14T05:43:01.044Z,23.00
2023-02-14T05:48:04.102Z,15.50
2023-02-14T05:53:06.952Z,18.60
2023-02-14T05:58:09.992Z,21.50
2023-02-14T06:03:12.880Z,25.20
2023-02-14T06:08:15.977Z,17.50
2023-02-14T06:13:18.849Z,24.30
2023-02-14T06:18:21.773Z,16.70
2023-02-14T06:23:24.621Z,21.20
2023-02-14T06:28:27.496Z,25.30
2023-02-14T06:33:30.325Z,17.40
2023-02-14T06:38:33.247Z,23.60
2023-02-14T06:43:36.764Z,25.50
2023-02-14T06:48:39.622Z,22.30
2023-02-14T06:53:42.461Z,19.90
2023-02-14T06:58:45.294Z,17.90
2023-02-14T07:03:48.168Z,23.90
2023-02-14T07:08:51.037Z,19.60
2023-02-14T07:13:53.892Z,20.20
2023-02-14T07:18:56.746Z,18.00
2023-02-14T07:23:59.597Z,19.70
2023-02-14T07:29:02.470Z,25.20
2023-02-14T07:34:05.468Z,18.30
2023-02-14T07:39:08.319Z,17.50
2023-02-14T07:44:11.805Z,21.90
2023-02-14T07:49:15.060Z,24.10
2023-02-14T07:54:19.663Z,18.20
2023-02-14T07:59:25.591Z,19.30
2023-02-14T08:04:28.792Z,20.80
2023-02-14T08:09:31.645Z,21.30
2023-02-14T08:14:34.497Z,20.80
2023-02-14T08:19:37.493Z,22.80
2023-02-14T08:24:40.352Z,22.90
2023-02-14T08:29:43.208Z,21.50
2023-02-14T08:34:46.126Z,20.00
2023-02-14T08:39:48.936Z,26.50
2023-02-14T08:44:51.782Z,22.30
2023-02-14T08:49:54.855Z,22.20
2023-02-14T08:54:57.777Z,25.10
2023-02-14T09:00:00.763Z,25.90
2023-02-14T09:05:04.135Z,17.20
2023-02-14T09:10:08.011Z,16.40
2023-02-14T09:20:17.085Z,20.80
2023-02-14T09:25:20.002Z,26.90
2023-02-14T09:30:22.978Z,23.90
2023-02-14T09:35:25.842Z,25.20
2023-02-14T09:40:29.006Z,22.80
2023-02-14T09:45:34.066Z,20.80
2023-02-14T09:50:57.305Z,21.60
2023-02-14T09:56:50.641Z,16.60
2023-02-14T10:02:06.095Z,21.70
2023-02-14T10:07:47.375Z,19.50
2023-02-14T10:13:07.589Z,17.70
2023-02-14T10:18:30.063Z,29.60
2023-02-14T10:23:46.929Z,25.40
2023-02-14T10:28:50.908Z,24.20
2023-02-14T10:34:05.197Z,22.20
2023-02-14T10:39:28.525Z,21.00
2023-02-14T10:44:54.922Z,20.50
2023-02-14T10:50:06.600Z,23.70
2023-02-14T10:55:31.828Z,26.10
2023-02-14T11:00:46.355Z,35.90
2023-02-14T11:05:50.271Z,46.80
2023-02-14T11:16:18.532Z,33.10
2023-02-14T11:21:24.401Z,20.80
2023-02-14T11:26:32.982Z,21.80
2023-02-14T11:31:39.096Z,19.70
2023-02-14T11:36:43.081Z,24.00
2023-02-14T11:47:27.282Z,24.30
2023-02-14T11:52:30.633Z,25.10
2023-02-14T11:57:38.219Z,23.80
2023-02-14T12:02:44.881Z,36.90
2023-02-14T12:07:52.421Z,39.20
2023-02-14T12:13:08.550Z,30.80
2023-02-14T12:18:49.195Z,24.10
2023-02-14T12:24:26.003Z,45.50
2023-02-14T12:29:53.006Z,23.10
2023-02-14T12:35:15.530Z,26.30
2023-02-14T12:40:50.897Z,34.00
2023-02-14T12:46:16.509Z,27.60
2023-02-14T12:52:09.140Z,26.80
2023-02-14T12:57:35.886Z,29.50
2023-02-14T13:03:16.309Z,26.50
2023-02-14T13:08:19.130Z,21.20
2023-02-14T13:13:46.333Z,22.10
2023-02-14T13:19:30.510Z,19.90
2023-02-14T13:24:42.206Z,20.20
2023-02-14T13:30:12.903Z,25.70
2023-02-14T13:35:18.468Z,25.80
2023-02-14T13:40:25.287Z,25.70
2023-02-14T13:45:40.076Z,24.90
2023-02-14T13:51:00.324Z,29.90
2023-02-14T13:56:12.534Z,31.00
2023-02-14T14:01:50.313Z,29.70
2023-02-14T14:07:05.141Z,25.20
2023-02-14T14:12:42.140Z,25.10
2023-02-14T14:18:14.717Z,31.30
2023-02-14T14:23:37.519Z,28.10
2023-02-14T14:28:40.716Z,23.80
2023-02-14T14:33:43.920Z,24.10
2023-02-14T14:38:53.578Z,24.90
2023-02-14T14:43:56.886Z,25.00
2023-02-14T14:48:59.770Z,28.40
2023-02-14T14:54:20.132Z,23.70
2023-02-14T14:59:27.720Z,24.30
2023-02-14T15:04:35.779Z,26.10
2023-02-14T15:09:40.166Z,28.00
2023-02-14T15:14:50.421Z,26.10
2023-02-14T15:20:02.030Z,33.90
2023-02-14T15:25:17.012Z,33.60
2023-02-14T15:30:20.143Z,26.80
2023-02-14T15:35:30.645Z,33.60
2023-02-14T15:40:35.759Z,24.90
2023-02-14T15:45:38.948Z,25.70
2023-02-14T15:50:55.201Z,27.60
2023-02-14T15:56:11.365Z,31.20
2023-02-14T16:01:14.333Z,28.90
2023-02-14T16:07:02.682Z,35.90
2023-02-14T16:12:31.900Z,41.60
2023-02-14T16:17:35.717Z,31.90
2023-02-14T16:22:38.557Z,30.10
2023-02-14T16:27:42.597Z,27.90
2023-02-14T16:32:51.615Z,34.30
2023-02-14T16:37:54.550Z,27.20
2023-02-14T16:42:59.175Z,29.00
2023-02-14T16:48:02.368Z,30.10
2023-02-14T16:53:12.938Z,37.80
2023-02-14T16:58:15.864Z,35.60
2023-02-14T17:03:19.236Z,39.70
2023-02-14T17:08:22.152Z,40.00
2023-02-14T17:13:27.719Z,44.70
2023-02-14T17:18:33.202Z,36.50
2023-02-14T17:23:36.122Z,41.60
2023-02-14T17:28:38.984Z,35.40
2023-02-14T17:33:41.895Z,40.10
2023-02-14T17:38:45.019Z,37.10
2023-02-14T17:43:48.690Z,35.20
2023-02-14T17:48:51.674Z,39.70
2023-02-14T17:53:54.558Z,38.70
2023-02-14T17:58:57.378Z,42.00
2023-02-14T18:04:01.112Z,35.00
2023-02-14T18:09:07.452Z,37.90
2023-02-14T18:14:10.604Z,36.50
2023-02-14T18:19:16.073Z,40.00
2023-02-14T18:24:20.043Z,38.70
2023-02-14T18:29:23.208Z,36.30
2023-02-14T18:34:26.304Z,37.60
2023-02-14T18:39:29.161Z,41.40
2023-02-14T18:44:33.456Z,35.70
2023-02-14T18:49:37.220Z,45.70
2023-02-14T18:54:40.132Z,34.90
2023-02-14T18:59:43.258Z,32.40
2023-02-14T19:04:46.223Z,39.20
2023-02-14T19:09:49.086Z,47.20
2023-02-14T19:14:55.694Z,40.20
2023-02-14T19:19:59.794Z,36.10
2023-02-14T19:25:02.645Z,43.20
2023-02-14T19:30:06.982Z,40.90
2023-02-14T19:35:09.859Z,41.00
2023-02-14T19:40:14.574Z,42.60
2023-02-14T19:45:18.625Z,37.50
2023-02-14T19:50:22.110Z,31.40
2023-02-14T19:55:25.173Z,41.50
2023-02-14T20:00:28.297Z,37.50
2023-02-14T20:05:31.152Z,42.40
2023-02-14T20:10:34.074Z,48.70
2023-02-14T20:15:37.591Z,41.80
2023-02-14T20:21:02.200Z,39.50
2023-02-14T20:26:10.626Z,45.90
2023-02-14T20:31:16.049Z,41.90
2023-02-14T20:36:20.310Z,45.40
2023-02-14T20:41:23.428Z,38.30
2023-02-14T20:46:26.500Z,35.40
2023-02-14T20:51:30.889Z,57.20
2023-02-14T20:56:34.495Z,48.00
2023-02-14T21:01:38.013Z,50.30
2023-02-14T21:06:41.140Z,45.80
2023-02-14T21:11:44.107Z,80.00
2023-02-14T21:16:47.064Z,48.30
2023-02-14T21:21:49.974Z,43.20
2023-02-14T21:26:52.875Z,46.00
2023-02-14T21:31:55.822Z,41.30
2023-02-14T21:36:59.082Z,42.70
2023-02-14T21:42:02.416Z,44.10
2023-02-14T21:47:05.246Z,42.50
2023-02-14T21:52:08.060Z,39.00
2023-02-14T21:57:10.867Z,44.40
2023-02-14T22:02:13.745Z,40.60
2023-02-14T22:07:16.738Z,44.20
2023-02-14T22:12:19.597Z,39.00
2023-02-14T22:17:22.426Z,48.90
2023-02-14T22:22:25.330Z,39.50
2023-02-14T22:27:28.420Z,41.40
2023-02-14T22:32:31.297Z,39.50
2023-02-14T22:37:34.183Z,40.60
2023-02-14T22:42:36.985Z,39.90
2023-02-14T22:47:39.861Z,39.90
2023-02-14T22:52:42.716Z,44.30
2023-02-14T22:57:45.551Z,43.30
2023-02-14T23:02:48.402Z,43.00
2023-02-14T23:07:51.290Z,40.90
2023-02-14T23:13:12.688Z,35.60
2023-02-14T23:18:34.363Z,35.90
2023-02-14T23:23:37.210Z,41.50
2023-02-14T23:28:40.023Z,43.30
2023-02-14T23:33:42.897Z,43.40
2023-02-14T23:38:45.773Z,41.60
2023-02-14T23:43:49.039Z,43.60
2023-02-14T23:48:51.946Z,37.40
2023-02-14T23:53:55.151Z,38.80
2023-02-14T23:58:58.008Z,40.50
